Mount Snow, Vermont
Current Conditions -  °F | °C
As of 6:54 PM on Friday 19 Dec 2014 (Local Time) from KDDH Reporting Station
Overcast Overcast  
Wind Chill: 22°   Ceiling: 2800
Heat Index: 27°   Visibility: 10mi
Dew Point: 20°   Wind: 5mph
Humidity: 75%   Direction: 330°NNW
Pressure: 30.1"   Gusts: NA
Location:  42.9652°N, 72.9074°W
Report Text: KDDH 192354Z AUTO 33004KT 10SM OVC028 M03/M07 A3010 RMK AO2 SLP204 T10281067 11011 21028 53021
Loading
Personal Weather Stations






























Interactive Weather Map New forecast layout! Learn more

10-Day Weather Forecast

Advertisements
Track Severe Weather on mobile